sensor_id;sensor_type;location;lat;lon;timestamp;pressure;altitude;pressure_sealevel;temperature;humidity
70571;BME280;58135;50.948;-1.458;2022-11-30T00:01:59;101879.47;;;8.79;18.69
70571;BME280;58135;50.948;-1.458;2022-11-30T00:04:25;101882.12;;;8.08;18.55
70571;BME280;58135;50.948;-1.458;2022-11-30T00:06:50;101881.64;;;7.40;18.63
70571;BME280;58135;50.948;-1.458;2022-11-30T00:09:15;101881.45;;;6.00;18.90
70571;BME280;58135;50.948;-1.458;2022-11-30T00:11:40;101879.08;;;6.02;18.90
70571;BME280;58135;50.948;-1.458;2022-11-30T00:14:06;101874.83;;;7.34;18.98
70571;BME280;58135;50.948;-1.458;2022-11-30T00:16:31;101870.61;;;5.11;19.22
70571;BME280;58135;50.948;-1.458;2022-11-30T00:18:57;101870.01;;;6.10;19.42
70571;BME280;58135;50.948;-1.458;2022-11-30T00:21:22;101865.35;;;5.70;19.11
70571;BME280;58135;50.948;-1.458;2022-11-30T00:23:49;101866.40;;;8.30;19.12
70571;BME280;58135;50.948;-1.458;2022-11-30T00:26:15;101863.83;;;8.35;19.11
70571;BME280;58135;50.948;-1.458;2022-11-30T00:28:39;101862.99;;;7.52;18.93
70571;BME280;58135;50.948;-1.458;2022-11-30T00:31:06;101859.84;;;6.59;19.11
70571;BME280;58135;50.948;-1.458;2022-11-30T00:33:32;101859.00;;;5.99;18.93
70571;BME280;58135;50.948;-1.458;2022-11-30T00:35:56;101855.52;;;6.55;19.11
70571;BME280;58135;50.948;-1.458;2022-11-30T00:38:21;101856.97;;;6.20;18.90
70571;BME280;58135;50.948;-1.458;2022-11-30T00:40:47;101858.21;;;7.19;18.74
70571;BME280;58135;50.948;-1.458;2022-11-30T00:43:12;101862.12;;;7.67;18.88
70571;BME280;58135;50.948;-1.458;2022-11-30T00:45:39;101865.23;;;7.00;18.88
70571;BME280;58135;50.948;-1.458;2022-11-30T00:48:04;101864.96;;;7.20;18.84
70571;BME280;58135;50.948;-1.458;2022-11-30T00:50:28;101862.24;;;7.34;18.79
70571;BME280;58135;50.948;-1.458;2022-11-30T00:52:54;101862.15;;;7.36;18.71
70571;BME280;58135;50.948;-1.458;2022-11-30T00:55:19;101860.48;;;7.46;18.67
70571;BME280;58135;50.948;-1.458;2022-11-30T00:57:44;101859.48;;;7.69;18.55
70571;BME280;58135;50.948;-1.458;2022-11-30T01:00:10;101862.42;;;7.76;18.71
70571;BME280;58135;50.948;-1.458;2022-11-30T01:02:35;101865.71;;;9.11;18.59
70571;BME280;58135;50.948;-1.458;2022-11-30T01:05:00;101867.81;;;8.51;18.50
70571;BME280;58135;50.948;-1.458;2022-11-30T01:07:26;101862.88;;;7.17;18.38
70571;BME280;58135;50.948;-1.458;2022-11-30T01:09:51;101857.14;;;7.48;18.35
70571;BME280;58135;50.948;-1.458;2022-11-30T01:12:17;101852.90;;;7.40;18.35
70571;BME280;58135;50.948;-1.458;2022-11-30T01:14:43;101851.40;;;8.19;18.38
70571;BME280;58135;50.948;-1.458;2022-11-30T01:17:08;101848.59;;;7.17;18.38
70571;BME280;58135;50.948;-1.458;2022-11-30T01:19:34;101847.30;;;7.68;18.35
70571;BME280;58135;50.948;-1.458;2022-11-30T01:22:00;101844.68;;;8.24;18.45
70571;BME280;58135;50.948;-1.458;2022-11-30T01:24:25;101844.91;;;6.26;18.52
70571;BME280;58135;50.948;-1.458;2022-11-30T01:26:50;101846.28;;;7.59;18.62
70571;BME280;58135;50.948;-1.458;2022-11-30T01:29:16;101846.29;;;5.63;18.83
70571;BME280;58135;50.948;-1.458;2022-11-30T01:31:41;101847.45;;;5.00;18.72
70571;BME280;58135;50.948;-1.458;2022-11-30T01:34:07;101843.62;;;6.90;18.61
70571;BME280;58135;50.948;-1.458;2022-11-30T01:36:32;101847.40;;;7.78;18.58
70571;BME280;58135;50.948;-1.458;2022-11-30T01:38:58;101854.15;;;8.63;18.60
70571;BME280;58135;50.948;-1.458;2022-11-30T01:41:24;101856.97;;;6.97;18.55
70571;BME280;58135;50.948;-1.458;2022-11-30T01:43:50;101857.31;;;6.39;18.51
70571;BME280;58135;50.948;-1.458;2022-11-30T01:46:23;101857.22;;;7.61;18.41
70571;BME280;58135;50.948;-1.458;2022-11-30T01:48:39;101859.86;;;6.82;18.31
70571;BME280;58135;50.948;-1.458;2022-11-30T01:51:04;101861.82;;;7.02;18.22
70571;BME280;58135;50.948;-1.458;2022-11-30T01:53:30;101864.50;;;5.56;18.25
70571;BME280;58135;50.948;-1.458;2022-11-30T01:55:55;101864.09;;;9.29;18.11
70571;BME280;58135;50.948;-1.458;2022-11-30T01:58:24;101865.68;;;7.57;17.96
70571;BME280;58135;50.948;-1.458;2022-11-30T02:00:46;101869.33;;;6.67;17.84
70571;BME280;58135;50.948;-1.458;2022-11-30T02:03:15;101870.59;;;6.68;17.77
70571;BME280;58135;50.948;-1.458;2022-11-30T02:05:38;101870.42;;;7.44;17.59
70571;BME280;58135;50.948;-1.458;2022-11-30T02:08:02;101870.05;;;6.49;17.58
70571;BME280;58135;50.948;-1.458;2022-11-30T02:10:30;101864.53;;;8.17;17.53
70571;BME280;58135;50.948;-1.458;2022-11-30T02:13:13;101864.32;;;8.03;17.45
70571;BME280;58135;50.948;-1.458;2022-11-30T02:15:20;101866.44;;;7.92;17.42
70571;BME280;58135;50.948;-1.458;2022-11-30T02:17:49;101868.71;;;6.83;17.44
70571;BME280;58135;50.948;-1.458;2022-11-30T02:20:23;101873.90;;;5.83;17.43
70571;BME280;58135;50.948;-1.458;2022-11-30T02:22:45;101875.40;;;8.28;17.39
70571;BME280;58135;50.948;-1.458;2022-11-30T02:25:07;101877.82;;;9.12;17.39
70571;BME280;58135;50.948;-1.458;2022-11-30T02:27:34;101888.86;;;5.48;17.42
70571;BME280;58135;50.948;-1.458;2022-11-30T02:29:53;101891.01;;;7.07;17.36
70571;BME280;58135;50.948;-1.458;2022-11-30T02:32:20;101890.96;;;6.07;17.36
70571;BME280;58135;50.948;-1.458;2022-11-30T02:34:42;101890.63;;;6.80;17.33
70571;BME280;58135;50.948;-1.458;2022-11-30T02:37:08;101887.42;;;8.30;17.33
70571;BME280;58135;50.948;-1.458;2022-11-30T02:39:32;101887.03;;;9.75;17.39
70571;BME280;58135;50.948;-1.458;2022-11-30T02:41:58;101885.78;;;5.29;17.42
70571;BME280;58135;50.948;-1.458;2022-11-30T02:44:24;101888.85;;;7.87;17.33
70571;BME280;58135;50.948;-1.458;2022-11-30T02:46:58;101889.15;;;8.68;17.35
70571;BME280;58135;50.948;-1.458;2022-11-30T02:49:18;101887.50;;;8.67;17.38
70571;BME280;58135;50.948;-1.458;2022-11-30T02:51:40;101886.74;;;6.81;17.34
70571;BME280;58135;50.948;-1.458;2022-11-30T02:54:05;101884.86;;;6.77;17.36
70571;BME280;58135;50.948;-1.458;2022-11-30T02:56:31;101887.15;;;6.69;17.34
70571;BME280;58135;50.948;-1.458;2022-11-30T02:58:57;101890.69;;;6.44;17.42
70571;BME280;58135;50.948;-1.458;2022-11-30T03:01:24;101889.73;;;7.95;17.66
70571;BME280;58135;50.948;-1.458;2022-11-30T03:03:47;101888.95;;;7.48;17.85
70571;BME280;58135;50.948;-1.458;2022-11-30T03:06:13;101890.25;;;5.79;17.96
70571;BME280;58135;50.948;-1.458;2022-11-30T03:08:38;101893.62;;;5.57;18.00
70571;BME280;58135;50.948;-1.458;2022-11-30T03:11:04;101894.31;;;6.60;17.98
70571;BME280;58135;50.948;-1.458;2022-11-30T03:13:29;101893.13;;;5.15;18.26
70571;BME280;58135;50.948;-1.458;2022-11-30T03:15:54;101891.46;;;7.43;18.29
70571;BME280;58135;50.948;-1.458;2022-11-30T03:18:20;101888.21;;;4.57;18.43
70571;BME280;58135;50.948;-1.458;2022-11-30T03:20:45;101886.09;;;5.42;18.62
70571;BME280;58135;50.948;-1.458;2022-11-30T03:23:10;101885.62;;;4.82;18.53
70571;BME280;58135;50.948;-1.458;2022-11-30T03:25:35;101883.61;;;7.35;18.67
70571;BME280;58135;50.948;-1.458;2022-11-30T03:28:01;101886.40;;;6.93;18.78
70571;BME280;58135;50.948;-1.458;2022-11-30T03:30:26;101882.48;;;7.17;18.75
70571;BME280;58135;50.948;-1.458;2022-11-30T03:32:52;101884.18;;;4.36;18.79
70571;BME280;58135;50.948;-1.458;2022-11-30T03:35:17;101882.59;;;5.85;18.96
70571;BME280;58135;50.948;-1.458;2022-11-30T03:37:42;101884.35;;;4.84;19.04
70571;BME280;58135;50.948;-1.458;2022-11-30T03:40:08;101886.52;;;5.40;19.16
70571;BME280;58135;50.948;-1.458;2022-11-30T03:42:33;101884.63;;;4.96;19.40
70571;BME280;58135;50.948;-1.458;2022-11-30T03:44:58;101890.51;;;6.22;19.35
70571;BME280;58135;50.948;-1.458;2022-11-30T03:47:23;101891.03;;;5.15;19.23
70571;BME280;58135;50.948;-1.458;2022-11-30T03:49:49;101896.94;;;6.21;19.30
70571;BME280;58135;50.948;-1.458;2022-11-30T03:52:14;101899.72;;;7.79;19.23
70571;BME280;58135;50.948;-1.458;2022-11-30T03:54:40;101899.95;;;5.63;19.07
70571;BME280;58135;50.948;-1.458;2022-11-30T03:57:06;101902.30;;;5.33;18.82
70571;BME280;58135;50.948;-1.458;2022-11-30T03:59:31;101903.87;;;7.15;18.81
70571;BME280;58135;50.948;-1.458;2022-11-30T04:01:57;101903.33;;;5.84;18.71
70571;BME280;58135;50.948;-1.458;2022-11-30T04:04:22;101901.91;;;5.84;18.46
70571;BME280;58135;50.948;-1.458;2022-11-30T04:06:47;101898.92;;;6.67;18.81
70571;BME280;58135;50.948;-1.458;2022-11-30T04:09:13;101893.36;;;5.58;18.94
70571;BME280;58135;50.948;-1.458;2022-11-30T04:11:38;101893.64;;;7.49;18.89
70571;BME280;58135;50.948;-1.458;2022-11-30T04:14:03;101891.31;;;4.86;18.97
70571;BME280;58135;50.948;-1.458;2022-11-30T04:16:29;101893.81;;;5.60;18.87
70571;BME280;58135;50.948;-1.458;2022-11-30T04:18:54;101895.39;;;5.93;18.56
70571;BME280;58135;50.948;-1.458;2022-11-30T04:21:20;101900.29;;;6.54;18.77
70571;BME280;58135;50.948;-1.458;2022-11-30T04:23:45;101904.54;;;7.62;18.77
70571;BME280;58135;50.948;-1.458;2022-11-30T04:26:12;101903.01;;;6.13;18.71
70571;BME280;58135;50.948;-1.458;2022-11-30T04:28:36;101903.99;;;6.47;18.62
70571;BME280;58135;50.948;-1.458;2022-11-30T04:31:02;101904.56;;;7.98;18.51
70571;BME280;58135;50.948;-1.458;2022-11-30T04:33:27;101903.03;;;5.39;18.70
70571;BME280;58135;50.948;-1.458;2022-11-30T04:35:54;101905.34;;;5.22;18.68
70571;BME280;58135;50.948;-1.458;2022-11-30T04:38:17;101909.87;;;7.92;18.72
70571;BME280;58135;50.948;-1.458;2022-11-30T04:40:43;101912.02;;;6.32;18.70
70571;BME280;58135;50.948;-1.458;2022-11-30T04:43:10;101914.32;;;7.39;18.68
70571;BME280;58135;50.948;-1.458;2022-11-30T04:45:40;101916.61;;;7.34;18.55
70571;BME280;58135;50.948;-1.458;2022-11-30T04:48:00;101916.57;;;5.08;18.67
70571;BME280;58135;50.948;-1.458;2022-11-30T04:50:25;101914.57;;;5.09;18.70
70571;BME280;58135;50.948;-1.458;2022-11-30T04:52:50;101918.35;;;7.35;18.84
70571;BME280;58135;50.948;-1.458;2022-11-30T04:55:16;101919.86;;;7.51;19.02
70571;BME280;58135;50.948;-1.458;2022-11-30T04:57:41;101924.56;;;6.49;18.74
70571;BME280;58135;50.948;-1.458;2022-11-30T05:00:09;101930.48;;;6.66;18.68
70571;BME280;58135;50.948;-1.458;2022-11-30T05:02:32;101930.67;;;7.02;18.74
70571;BME280;58135;50.948;-1.458;2022-11-30T05:04:58;101932.82;;;6.37;18.84
70571;BME280;58135;50.948;-1.458;2022-11-30T05:07:23;101936.64;;;5.55;18.71
70571;BME280;58135;50.948;-1.458;2022-11-30T05:09:49;101942.58;;;6.44;18.84
70571;BME280;58135;50.948;-1.458;2022-11-30T05:12:14;101945.07;;;6.86;18.78
70571;BME280;58135;50.948;-1.458;2022-11-30T05:14:40;101948.25;;;7.88;18.73
70571;BME280;58135;50.948;-1.458;2022-11-30T05:17:05;101953.59;;;8.16;18.76
70571;BME280;58135;50.948;-1.458;2022-11-30T05:19:30;101950.67;;;9.19;18.69
70571;BME280;58135;50.948;-1.458;2022-11-30T05:21:56;101939.71;;;7.00;18.48
70571;BME280;58135;50.948;-1.458;2022-11-30T05:24:21;101941.61;;;5.91;18.57
70571;BME280;58135;50.948;-1.458;2022-11-30T05:26:47;101944.91;;;7.98;18.53
70571;BME280;58135;50.948;-1.458;2022-11-30T05:29:12;101946.67;;;9.34;18.46
70571;BME280;58135;50.948;-1.458;2022-11-30T05:31:38;101946.68;;;8.61;18.36
70571;BME280;58135;50.948;-1.458;2022-11-30T05:34:03;101947.31;;;7.86;18.38
70571;BME280;58135;50.948;-1.458;2022-11-30T05:36:29;101950.39;;;7.33;18.28
70571;BME280;58135;50.948;-1.458;2022-11-30T05:38:54;101949.77;;;7.26;18.13
70571;BME280;58135;50.948;-1.458;2022-11-30T05:41:19;101953.38;;;7.58;18.23
70571;BME280;58135;50.948;-1.458;2022-11-30T05:43:45;101954.03;;;6.75;18.19
70571;BME280;58135;50.948;-1.458;2022-11-30T05:46:10;101952.24;;;8.65;18.37
70571;BME280;58135;50.948;-1.458;2022-11-30T05:48:36;101950.40;;;8.76;18.32
70571;BME280;58135;50.948;-1.458;2022-11-30T05:51:06;101952.02;;;7.66;18.16
70571;BME280;58135;50.948;-1.458;2022-11-30T05:53:27;101949.94;;;6.07;18.46
70571;BME280;58135;50.948;-1.458;2022-11-30T05:55:53;101947.41;;;8.95;18.53
70571;BME280;58135;50.948;-1.458;2022-11-30T05:58:18;101947.86;;;8.23;18.51
70571;BME280;58135;50.948;-1.458;2022-11-30T06:00:44;101949.69;;;5.85;18.43
70571;BME280;58135;50.948;-1.458;2022-11-30T06:03:09;101950.02;;;7.64;18.39
70571;BME280;58135;50.948;-1.458;2022-11-30T06:05:34;101947.77;;;5.79;18.39
70571;BME280;58135;50.948;-1.458;2022-11-30T06:08:00;101949.63;;;6.25;18.45
70571;BME280;58135;50.948;-1.458;2022-11-30T06:10:25;101947.53;;;7.89;18.46
70571;BME280;58135;50.948;-1.458;2022-11-30T06:12:50;101949.90;;;7.01;18.65
70571;BME280;58135;50.948;-1.458;2022-11-30T06:15:15;101947.83;;;7.01;18.97
70571;BME280;58135;50.948;-1.458;2022-11-30T06:17:41;101948.80;;;8.10;18.85
70571;BME280;58135;50.948;-1.458;2022-11-30T06:20:07;101948.32;;;8.29;18.84
70571;BME280;58135;50.948;-1.458;2022-11-30T06:22:31;101945.56;;;7.63;18.61
70571;BME280;58135;50.948;-1.458;2022-11-30T06:24:56;101937.39;;;7.74;18.60
70571;BME280;58135;50.948;-1.458;2022-11-30T06:27:21;101941.02;;;8.49;18.69
70571;BME280;58135;50.948;-1.458;2022-11-30T06:29:47;101947.67;;;7.30;18.76
70571;BME280;58135;50.948;-1.458;2022-11-30T06:32:12;101956.89;;;7.22;18.97
70571;BME280;58135;50.948;-1.458;2022-11-30T06:34:38;101957.81;;;7.66;18.89
70571;BME280;58135;50.948;-1.458;2022-11-30T06:37:03;101957.91;;;7.87;18.60
70571;BME280;58135;50.948;-1.458;2022-11-30T06:39:28;101964.26;;;7.86;18.73
70571;BME280;58135;50.948;-1.458;2022-11-30T06:41:54;101955.02;;;9.81;18.55
70571;BME280;58135;50.948;-1.458;2022-11-30T06:44:19;101964.34;;;8.10;18.68
70571;BME280;58135;50.948;-1.458;2022-11-30T06:46:44;101965.20;;;7.43;18.48
70571;BME280;58135;50.948;-1.458;2022-11-30T06:49:10;101965.77;;;6.63;18.38
70571;BME280;58135;50.948;-1.458;2022-11-30T06:51:35;101968.71;;;5.12;18.44
70571;BME280;58135;50.948;-1.458;2022-11-30T06:54:01;101971.32;;;9.77;18.36
70571;BME280;58135;50.948;-1.458;2022-11-30T06:56:26;101974.56;;;7.37;18.25
70571;BME280;58135;50.948;-1.458;2022-11-30T06:58:52;101975.15;;;8.39;18.14
70571;BME280;58135;50.948;-1.458;2022-11-30T07:01:17;101974.78;;;6.34;18.22
70571;BME280;58135;50.948;-1.458;2022-11-30T07:03:42;101975.55;;;6.92;18.29
70571;BME280;58135;50.948;-1.458;2022-11-30T07:06:09;101979.30;;;8.62;18.29
70571;BME280;58135;50.948;-1.458;2022-11-30T07:08:32;101979.19;;;5.85;18.43
70571;BME280;58135;50.948;-1.458;2022-11-30T07:10:58;101979.73;;;6.68;18.37
70571;BME280;58135;50.948;-1.458;2022-11-30T07:13:23;101984.12;;;8.51;18.61
70571;BME280;58135;50.948;-1.458;2022-11-30T07:15:48;101987.29;;;6.26;18.80
70571;BME280;58135;50.948;-1.458;2022-11-30T07:18:14;101985.86;;;6.53;18.90
70571;BME280;58135;50.948;-1.458;2022-11-30T07:20:39;101985.86;;;5.44;18.81
70571;BME280;58135;50.948;-1.458;2022-11-30T07:23:05;101988.52;;;7.65;18.92
70571;BME280;58135;50.948;-1.458;2022-11-30T07:25:31;101989.97;;;6.40;19.18
70571;BME280;58135;50.948;-1.458;2022-11-30T07:27:56;101991.54;;;6.35;19.30
70571;BME280;58135;50.948;-1.458;2022-11-30T07:30:22;101993.81;;;5.93;19.08
70571;BME280;58135;50.948;-1.458;2022-11-30T07:32:47;101997.79;;;6.87;19.37
70571;BME280;58135;50.948;-1.458;2022-11-30T07:35:12;102003.57;;;7.13;19.31
70571;BME280;58135;50.948;-1.458;2022-11-30T07:37:38;102009.26;;;7.15;19.34
70571;BME280;58135;50.948;-1.458;2022-11-30T07:40:05;102013.77;;;4.83;19.36
70571;BME280;58135;50.948;-1.458;2022-11-30T07:42:29;102020.32;;;7.90;19.05
70571;BME280;58135;50.948;-1.458;2022-11-30T07:44:55;102029.28;;;6.69;18.92
70571;BME280;58135;50.948;-1.458;2022-11-30T07:47:20;102033.40;;;6.90;19.00
70571;BME280;58135;50.948;-1.458;2022-11-30T07:49:45;102038.42;;;5.88;18.85
70571;BME280;58135;50.948;-1.458;2022-11-30T07:52:11;102036.59;;;8.85;18.65
70571;BME280;58135;50.948;-1.458;2022-11-30T07:54:36;102035.43;;;6.13;18.62
70571;BME280;58135;50.948;-1.458;2022-11-30T07:57:02;102035.65;;;7.10;18.61
70571;BME280;58135;50.948;-1.458;2022-11-30T07:59:27;102036.71;;;6.80;18.73
70571;BME280;58135;50.948;-1.458;2022-11-30T08:01:53;102036.91;;;6.80;18.81
70571;BME280;58135;50.948;-1.458;2022-11-30T08:04:19;102038.65;;;6.89;18.89
70571;BME280;58135;50.948;-1.458;2022-11-30T08:06:44;102041.34;;;5.67;18.70
70571;BME280;58135;50.948;-1.458;2022-11-30T08:09:10;102040.41;;;7.49;18.60
70571;BME280;58135;50.948;-1.458;2022-11-30T08:11:35;102041.71;;;7.34;18.50
70571;BME280;58135;50.948;-1.458;2022-11-30T08:14:01;102046.64;;;7.65;18.90
70571;BME280;58135;50.948;-1.458;2022-11-30T08:16:27;102049.36;;;8.52;18.82
70571;BME280;58135;50.948;-1.458;2022-11-30T08:18:52;102055.18;;;6.57;19.08
70571;BME280;58135;50.948;-1.458;2022-11-30T08:21:18;102052.00;;;5.04;19.01
70571;BME280;58135;50.948;-1.458;2022-11-30T08:23:44;102047.41;;;6.95;18.76
70571;BME280;58135;50.948;-1.458;2022-11-30T08:26:11;102047.15;;;6.08;18.93
70571;BME280;58135;50.948;-1.458;2022-11-30T08:28:34;102051.27;;;6.28;18.95
70571;BME280;58135;50.948;-1.458;2022-11-30T08:31:00;102051.52;;;8.55;18.78
70571;BME280;58135;50.948;-1.458;2022-11-30T08:33:25;102056.15;;;6.65;18.91
70571;BME280;58135;50.948;-1.458;2022-11-30T08:35:50;102055.64;;;7.55;18.77
70571;BME280;58135;50.948;-1.458;2022-11-30T08:38:15;102055.79;;;8.71;19.00
70571;BME280;58135;50.948;-1.458;2022-11-30T08:40:40;102054.03;;;9.13;19.08
70571;BME280;58135;50.948;-1.458;2022-11-30T08:43:05;102059.96;;;7.58;19.14
70571;BME280;58135;50.948;-1.458;2022-11-30T08:45:31;102052.90;;;7.19;19.00
70571;BME280;58135;50.948;-1.458;2022-11-30T08:47:57;102057.39;;;6.42;18.99
70571;BME280;58135;50.948;-1.458;2022-11-30T08:50:22;102057.16;;;7.32;18.73
70571;BME280;58135;50.948;-1.458;2022-11-30T08:52:48;102066.30;;;6.57;18.66
70571;BME280;58135;50.948;-1.458;2022-11-30T08:55:14;102067.70;;;7.50;19.13
70571;BME280;58135;50.948;-1.458;2022-11-30T08:57:39;102068.61;;;7.78;18.98
70571;BME280;58135;50.948;-1.458;2022-11-30T09:00:06;102070.24;;;7.60;18.68
70571;BME280;58135;50.948;-1.458;2022-11-30T09:02:30;102075.56;;;6.94;19.29
70571;BME280;58135;50.948;-1.458;2022-11-30T09:04:56;102068.46;;;8.26;18.93
70571;BME280;58135;50.948;-1.458;2022-11-30T09:07:21;102068.81;;;6.18;19.14
70571;BME280;58135;50.948;-1.458;2022-11-30T09:09:47;102066.56;;;7.97;19.30
70571;BME280;58135;50.948;-1.458;2022-11-30T09:12:12;102071.30;;;8.32;19.31
70571;BME280;58135;50.948;-1.458;2022-11-30T09:14:38;102068.91;;;8.69;19.05
70571;BME280;58135;50.948;-1.458;2022-11-30T09:17:03;102069.74;;;7.71;19.23
70571;BME280;58135;50.948;-1.458;2022-11-30T09:19:29;102070.81;;;9.04;19.21
70571;BME280;58135;50.948;-1.458;2022-11-30T09:21:54;102074.97;;;9.50;18.98
70571;BME280;58135;50.948;-1.458;2022-11-30T09:24:19;102071.85;;;7.91;18.91
70571;BME280;58135;50.948;-1.458;2022-11-30T09:26:44;102076.11;;;6.79;19.20
70571;BME280;58135;50.948;-1.458;2022-11-30T09:29:10;102079.55;;;7.91;18.93
70571;BME280;58135;50.948;-1.458;2022-11-30T09:31:35;102075.06;;;7.95;19.04
70571;BME280;58135;50.948;-1.458;2022-11-30T09:34:00;102079.08;;;8.52;19.24
70571;BME280;58135;50.948;-1.458;2022-11-30T09:36:26;102084.69;;;8.14;19.26
70571;BME280;58135;50.948;-1.458;2022-11-30T09:38:52;102083.93;;;10.26;18.99
70571;BME280;58135;50.948;-1.458;2022-11-30T09:41:31;102087.86;;;10.60;18.90
70571;BME280;58135;50.948;-1.458;2022-11-30T09:43:48;102090.93;;;10.19;18.89
70571;BME280;58135;50.948;-1.458;2022-11-30T09:46:07;102091.24;;;9.42;18.83
70571;BME280;58135;50.948;-1.458;2022-11-30T09:48:45;102093.22;;;10.79;18.78
70571;BME280;58135;50.948;-1.458;2022-11-30T09:50:59;102094.90;;;9.30;18.70
70571;BME280;58135;50.948;-1.458;2022-11-30T09:53:26;102093.64;;;10.46;18.62
70571;BME280;58135;50.948;-1.458;2022-11-30T09:55:50;102095.23;;;9.32;18.61
70571;BME280;58135;50.948;-1.458;2022-11-30T09:58:22;102095.45;;;10.62;18.73
70571;BME280;58135;50.948;-1.458;2022-11-30T10:00:39;102099.12;;;10.02;18.77
70571;BME280;58135;50.948;-1.458;2022-11-30T10:03:05;102101.10;;;8.54;18.81
70571;BME280;58135;50.948;-1.458;2022-11-30T10:05:40;102100.94;;;9.81;18.81
70571;BME280;58135;50.948;-1.458;2022-11-30T10:08:10;102105.39;;;10.84;18.43
70571;BME280;58135;50.948;-1.458;2022-11-30T10:10:29;102109.82;;;8.89;18.70
70571;BME280;58135;50.948;-1.458;2022-11-30T10:12:52;102115.20;;;8.98;18.70
70571;BME280;58135;50.948;-1.458;2022-11-30T10:15:22;102117.56;;;9.04;18.78
70571;BME280;58135;50.948;-1.458;2022-11-30T10:17:53;102119.44;;;9.52;18.68
70571;BME280;58135;50.948;-1.458;2022-11-30T10:20:20;102119.04;;;9.73;18.60
70571;BME280;58135;50.948;-1.458;2022-11-30T10:22:34;102119.89;;;9.88;18.23
70571;BME280;58135;50.948;-1.458;2022-11-30T10:25:02;102119.14;;;9.63;18.12
70571;BME280;58135;50.948;-1.458;2022-11-30T10:27:29;102122.22;;;11.25;18.54
70571;BME280;58135;50.948;-1.458;2022-11-30T10:29:44;102121.84;;;10.51;18.52
70571;BME280;58135;50.948;-1.458;2022-11-30T10:32:12;102124.78;;;10.51;18.59
70571;BME280;58135;50.948;-1.458;2022-11-30T10:34:35;102128.82;;;10.58;18.51
70571;BME280;58135;50.948;-1.458;2022-11-30T10:37:03;102129.31;;;8.22;18.64
70571;BME280;58135;50.948;-1.458;2022-11-30T10:39:29;102127.84;;;9.20;18.31
70571;BME280;58135;50.948;-1.458;2022-11-30T10:41:54;102122.82;;;10.31;18.61
70571;BME280;58135;50.948;-1.458;2022-11-30T10:44:18;102114.68;;;10.20;18.44
70571;BME280;58135;50.948;-1.458;2022-11-30T10:46:44;102114.81;;;7.99;18.43
70571;BME280;58135;50.948;-1.458;2022-11-30T10:49:12;102115.74;;;8.80;18.19
70571;BME280;58135;50.948;-1.458;2022-11-30T10:51:35;102115.77;;;8.80;18.66
70571;BME280;58135;50.948;-1.458;2022-11-30T10:53:58;102113.34;;;10.68;18.73
70571;BME280;58135;50.948;-1.458;2022-11-30T10:56:24;102116.25;;;10.22;18.74
70571;BME280;58135;50.948;-1.458;2022-11-30T10:58:52;102118.25;;;8.60;18.71
70571;BME280;58135;50.948;-1.458;2022-11-30T11:03:38;102117.23;;;10.91;18.74
70571;BME280;58135;50.948;-1.458;2022-11-30T11:06:08;102118.68;;;9.54;18.65
70571;BME280;58135;50.948;-1.458;2022-11-30T11:08:29;102118.81;;;10.71;18.66
70571;BME280;58135;50.948;-1.458;2022-11-30T11:10:55;102117.03;;;11.78;18.56
70571;BME280;58135;50.948;-1.458;2022-11-30T11:15:55;102117.04;;;9.95;18.47
70571;BME280;58135;50.948;-1.458;2022-11-30T11:18:19;102119.65;;;10.25;18.69
70571;BME280;58135;50.948;-1.458;2022-11-30T11:20:36;102120.79;;;13.13;18.20
70571;BME280;58135;50.948;-1.458;2022-11-30T11:23:02;102123.35;;;9.60;18.28
70571;BME280;58135;50.948;-1.458;2022-11-30T11:25:31;102125.10;;;9.88;18.23
70571;BME280;58135;50.948;-1.458;2022-11-30T11:27:52;102125.54;;;10.40;18.34
70571;BME280;58135;50.948;-1.458;2022-11-30T11:30:27;102125.67;;;11.60;18.56
70571;BME280;58135;50.948;-1.458;2022-11-30T11:37:33;102131.67;;;11.20;18.38
70571;BME280;58135;50.948;-1.458;2022-11-30T11:40:03;102126.86;;;12.44;18.38
70571;BME280;58135;50.948;-1.458;2022-11-30T11:42:26;102127.48;;;9.78;18.27
70571;BME280;58135;50.948;-1.458;2022-11-30T11:44:52;102124.32;;;9.00;18.35
70571;BME280;58135;50.948;-1.458;2022-11-30T11:47:22;102125.65;;;10.90;18.45
70571;BME280;58135;50.948;-1.458;2022-11-30T11:49:42;102128.67;;;8.65;18.02
70571;BME280;58135;50.948;-1.458;2022-11-30T11:52:15;102122.70;;;9.98;18.20
70571;BME280;58135;50.948;-1.458;2022-11-30T11:54:34;102125.07;;;11.60;18.23
70571;BME280;58135;50.948;-1.458;2022-11-30T11:56:57;102126.75;;;12.02;18.39
70571;BME280;58135;50.948;-1.458;2022-11-30T11:59:31;102128.33;;;12.08;18.31
70571;BME280;58135;50.948;-1.458;2022-11-30T12:01:54;102132.04;;;10.64;18.24
70571;BME280;58135;50.948;-1.458;2022-11-30T12:04:30;102125.02;;;9.95;18.10
70571;BME280;58135;50.948;-1.458;2022-11-30T12:06:39;102122.95;;;9.88;18.20
70571;BME280;58135;50.948;-1.458;2022-11-30T12:09:10;102125.43;;;12.16;18.39
70571;BME280;58135;50.948;-1.458;2022-11-30T12:11:37;102126.64;;;8.80;18.40
70571;BME280;58135;50.948;-1.458;2022-11-30T12:13:55;102127.44;;;9.97;18.16
70571;BME280;58135;50.948;-1.458;2022-11-30T12:16:31;102126.81;;;9.98;18.20
70571;BME280;58135;50.948;-1.458;2022-11-30T12:18:50;102126.13;;;10.75;18.23
70571;BME280;58135;50.948;-1.458;2022-11-30T12:21:13;102125.54;;;10.71;18.32
70571;BME280;58135;50.948;-1.458;2022-11-30T12:23:49;102126.74;;;11.05;18.21
70571;BME280;58135;50.948;-1.458;2022-11-30T12:26:09;102125.50;;;11.83;18.18
70571;BME280;58135;50.948;-1.458;2022-11-30T12:28:33;102125.47;;;9.29;18.20
70571;BME280;58135;50.948;-1.458;2022-11-30T12:31:03;102127.21;;;9.31;18.23
70571;BME280;58135;50.948;-1.458;2022-11-30T12:33:25;102130.38;;;11.38;17.78
70571;BME280;58135;50.948;-1.458;2022-11-30T12:35:55;102130.13;;;9.42;18.15
70571;BME280;58135;50.948;-1.458;2022-11-30T12:38:17;102131.95;;;10.23;18.12
70571;BME280;58135;50.948;-1.458;2022-11-30T12:40:42;102137.89;;;12.17;18.14
70571;BME280;58135;50.948;-1.458;2022-11-30T12:43:09;102135.92;;;10.85;18.12
70571;BME280;58135;50.948;-1.458;2022-11-30T12:45:32;102138.04;;;8.94;18.18
70571;BME280;58135;50.948;-1.458;2022-11-30T12:47:55;102139.40;;;12.07;18.07